sensor_id;sensor_type;location;lat;lon;timestamp;temperature;humidity
67572;SHT31;54397;47.506;19.158;2024-01-11T00:00:18;-0.58;62.70
67572;SHT31;54397;47.506;19.158;2024-01-11T00:03:41;-0.74;63.52
67572;SHT31;54397;47.506;19.158;2024-01-11T00:07:02;-0.58;61.79
67572;SHT31;54397;47.506;19.158;2024-01-11T00:10:29;-0.64;61.45
67572;SHT31;54397;47.506;19.158;2024-01-11T00:13:53;-0.78;62.50
67572;SHT31;54397;47.506;19.158;2024-01-11T00:17:14;-1.13;63.96
67572;SHT31;54397;47.506;19.158;2024-01-11T00:20:39;-1.17;64.19
67572;SHT31;54397;47.506;19.158;2024-01-11T00:24:01;-1.10;63.94
67572;SHT31;54397;47.506;19.158;2024-01-11T00:27:23;-1.13;64.08
67572;SHT31;54397;47.506;19.158;2024-01-11T00:30:44;-1.06;64.30
67572;SHT31;54397;47.506;19.158;2024-01-11T00:34:09;-0.95;63.11
67572;SHT31;54397;47.506;19.158;2024-01-11T00:37:30;-0.80;62.97
67572;SHT31;54397;47.506;19.158;2024-01-11T00:40:52;-0.61;61.81
67572;SHT31;54397;47.506;19.158;2024-01-11T00:44:14;-0.54;60.63
67572;SHT31;54397;47.506;19.158;2024-01-11T00:47:35;-0.50;60.10
67572;SHT31;54397;47.506;19.158;2024-01-11T00:51:00;-0.64;60.43
67572;SHT31;54397;47.506;19.158;2024-01-11T00:54:22;-0.67;60.62
67572;SHT31;54397;47.506;19.158;2024-01-11T00:57:46;-0.65;60.25
67572;SHT31;54397;47.506;19.158;2024-01-11T01:01:11;-0.65;60.09
67572;SHT31;54397;47.506;19.158;2024-01-11T01:04:33;-1.13;61.84
67572;SHT31;54397;47.506;19.158;2024-01-11T01:07:58;-1.17;61.39
67572;SHT31;54397;47.506;19.158;2024-01-11T01:11:20;-0.93;60.91
67572;SHT31;54397;47.506;19.158;2024-01-11T01:14:42;-0.85;59.87
67572;SHT31;54397;47.506;19.158;2024-01-11T01:18:03;-0.84;60.05
67572;SHT31;54397;47.506;19.158;2024-01-11T01:21:29;-1.01;61.11
67572;SHT31;54397;47.506;19.158;2024-01-11T01:24:53;-0.95;60.44
67572;SHT31;54397;47.506;19.158;2024-01-11T01:28:17;-1.01;60.76
67572;SHT31;54397;47.506;19.158;2024-01-11T01:31:38;-1.10;61.34
67572;SHT31;54397;47.506;19.158;2024-01-11T01:35:00;-1.20;62.17
67572;SHT31;54397;47.506;19.158;2024-01-11T01:38:23;-1.40;63.01
67572;SHT31;54397;47.506;19.158;2024-01-11T01:41:45;-1.40;62.90
67572;SHT31;54397;47.506;19.158;2024-01-11T01:45:07;-1.67;63.70
67572;SHT31;54397;47.506;19.158;2024-01-11T01:48:31;-1.81;64.48
67572;SHT31;54397;47.506;19.158;2024-01-11T01:51:56;-1.88;65.51
67572;SHT31;54397;47.506;19.158;2024-01-11T01:55:19;-1.64;63.81
67572;SHT31;54397;47.506;19.158;2024-01-11T01:58:47;-1.29;63.65
67572;SHT31;54397;47.506;19.158;2024-01-11T02:02:11;-1.12;62.15
67572;SHT31;54397;47.506;19.158;2024-01-11T02:05:36;-0.95;60.83
67572;SHT31;54397;47.506;19.158;2024-01-11T02:08:58;-1.06;60.82
67572;SHT31;54397;47.506;19.158;2024-01-11T02:12:20;-1.05;60.65
67572;SHT31;54397;47.506;19.158;2024-01-11T02:15:44;-1.17;60.92
67572;SHT31;54397;47.506;19.158;2024-01-11T02:19:12;-1.40;62.07
67572;SHT31;54397;47.506;19.158;2024-01-11T02:22:38;-1.84;63.75
67572;SHT31;54397;47.506;19.158;2024-01-11T02:26:01;-1.61;62.20
67572;SHT31;54397;47.506;19.158;2024-01-11T02:29:25;-1.63;61.92
67572;SHT31;54397;47.506;19.158;2024-01-11T02:32:48;-1.91;63.16
67572;SHT31;54397;47.506;19.158;2024-01-11T02:36:13;-1.39;61.34
67572;SHT31;54397;47.506;19.158;2024-01-11T02:39:35;-1.30;60.96
67572;SHT31;54397;47.506;19.158;2024-01-11T02:42:56;-1.23;60.64
67572;SHT31;54397;47.506;19.158;2024-01-11T02:46:20;-1.49;61.51
67572;SHT31;54397;47.506;19.158;2024-01-11T02:49:44;-1.44;61.04
67572;SHT31;54397;47.506;19.158;2024-01-11T02:53:08;-1.60;61.48
67572;SHT31;54397;47.506;19.158;2024-01-11T02:56:33;-1.57;61.00
67572;SHT31;54397;47.506;19.158;2024-01-11T02:59:59;-1.68;61.83
67572;SHT31;54397;47.506;19.158;2024-01-11T03:03:23;-1.70;61.30
67572;SHT31;54397;47.506;19.158;2024-01-11T03:06:47;-1.53;60.59
67572;SHT31;54397;47.506;19.158;2024-01-11T03:10:09;-1.51;60.57
67572;SHT31;54397;47.506;19.158;2024-01-11T03:13:32;-1.60;61.19
67572;SHT31;54397;47.506;19.158;2024-01-11T03:16:56;-1.57;61.00
67572;SHT31;54397;47.506;19.158;2024-01-11T03:20:18;-1.44;60.56
67572;SHT31;54397;47.506;19.158;2024-01-11T03:23:43;-1.50;60.42
67572;SHT31;54397;47.506;19.158;2024-01-11T03:27:07;-1.49;60.51
67572;SHT31;54397;47.506;19.158;2024-01-11T03:30:28;-1.46;60.72
67572;SHT31;54397;47.506;19.158;2024-01-11T03:33:53;-1.64;60.71
67572;SHT31;54397;47.506;19.158;2024-01-11T03:37:15;-1.72;61.40
67572;SHT31;54397;47.506;19.158;2024-01-11T03:40:38;-1.66;60.46
67572;SHT31;54397;47.506;19.158;2024-01-11T03:43:59;-1.88;62.11
67572;SHT31;54397;47.506;19.158;2024-01-11T03:47:22;-1.79;61.93
67572;SHT31;54397;47.506;19.158;2024-01-11T03:50:44;-1.99;62.49
67572;SHT31;54397;47.506;19.158;2024-01-11T03:54:05;-1.79;62.00
67572;SHT31;54397;47.506;19.158;2024-01-11T03:57:29;-1.98;62.03
67572;SHT31;54397;47.506;19.158;2024-01-11T04:00:51;-2.36;63.84
67572;SHT31;54397;47.506;19.158;2024-01-11T04:04:13;-2.32;63.55
67572;SHT31;54397;47.506;19.158;2024-01-11T04:07:37;-2.22;63.31
67572;SHT31;54397;47.506;19.158;2024-01-11T04:11:02;-1.95;62.13
67572;SHT31;54397;47.506;19.158;2024-01-11T04:14:24;-1.95;62.13
67572;SHT31;54397;47.506;19.158;2024-01-11T04:17:46;-2.42;64.03
67572;SHT31;54397;47.506;19.158;2024-01-11T04:21:40;-2.21;63.46
67572;SHT31;54397;47.506;19.158;2024-01-11T04:25:02;-2.42;63.89
67572;SHT31;54397;47.506;19.158;2024-01-11T04:28:26;-2.02;62.04
67572;SHT31;54397;47.506;19.158;2024-01-11T04:31:48;-1.81;60.62
67572;SHT31;54397;47.506;19.158;2024-01-11T04:35:10;-2.29;62.26
67572;SHT31;54397;47.506;19.158;2024-01-11T04:38:35;-2.33;62.80
67572;SHT31;54397;47.506;19.158;2024-01-11T04:41:56;-2.28;62.17
67572;SHT31;54397;47.506;19.158;2024-01-11T04:45:21;-2.08;61.31
67572;SHT31;54397;47.506;19.158;2024-01-11T04:48:44;-2.15;61.35
67572;SHT31;54397;47.506;19.158;2024-01-11T04:52:05;-2.09;61.42
67572;SHT31;54397;47.506;19.158;2024-01-11T04:55:28;-2.37;62.79
67572;SHT31;54397;47.506;19.158;2024-01-11T04:58:53;-2.25;62.63
67572;SHT31;54397;47.506;19.158;2024-01-11T05:02:15;-2.08;60.89
67572;SHT31;54397;47.506;19.158;2024-01-11T05:05:39;-1.94;60.25
67572;SHT31;54397;47.506;19.158;2024-01-11T05:09:06;-2.03;61.02
67572;SHT31;54397;47.506;19.158;2024-01-11T05:12:30;-1.99;61.01
67572;SHT31;54397;47.506;19.158;2024-01-11T05:15:52;-1.88;60.25
67572;SHT31;54397;47.506;19.158;2024-01-11T05:19:13;-2.12;61.27
67572;SHT31;54397;47.506;19.158;2024-01-11T05:22:35;-2.30;62.84
67572;SHT31;54397;47.506;19.158;2024-01-11T05:25:57;-2.47;63.63
67572;SHT31;54397;47.506;19.158;2024-01-11T05:29:19;-2.49;63.77
67572;SHT31;54397;47.506;19.158;2024-01-11T05:32:40;-2.74;64.47
67572;SHT31;54397;47.506;19.158;2024-01-11T05:36:02;-2.49;63.18
67572;SHT31;54397;47.506;19.158;2024-01-11T05:39:24;-2.60;63.58
67572;SHT31;54397;47.506;19.158;2024-01-11T05:42:46;-2.39;63.13
67572;SHT31;54397;47.506;19.158;2024-01-11T05:46:10;-2.29;63.13
67572;SHT31;54397;47.506;19.158;2024-01-11T05:49:32;-2.21;61.35
67572;SHT31;54397;47.506;19.158;2024-01-11T05:52:56;-2.25;61.05
67572;SHT31;54397;47.506;19.158;2024-01-11T05:56:18;-1.92;60.23
67572;SHT31;54397;47.506;19.158;2024-01-11T05:59:44;-2.32;61.53
67572;SHT31;54397;47.506;19.158;2024-01-11T06:03:09;-2.09;60.90
67572;SHT31;54397;47.506;19.158;2024-01-11T06:06:33;-2.05;60.44
67572;SHT31;54397;47.506;19.158;2024-01-11T06:09:54;-2.49;61.91
67572;SHT31;54397;47.506;19.158;2024-01-11T06:13:16;-2.22;60.94
67572;SHT31;54397;47.506;19.158;2024-01-11T06:16:38;-2.33;61.82
67572;SHT31;54397;47.506;19.158;2024-01-11T06:19:59;-2.19;61.11
67572;SHT31;54397;47.506;19.158;2024-01-11T06:23:22;-2.12;61.25
67572;SHT31;54397;47.506;19.158;2024-01-11T06:26:44;-2.54;62.85
67572;SHT31;54397;47.506;19.158;2024-01-11T06:30:06;-2.50;63.73
67572;SHT31;54397;47.506;19.158;2024-01-11T06:33:31;-2.29;62.43
67572;SHT31;54397;47.506;19.158;2024-01-11T06:36:55;-2.12;61.70
67572;SHT31;54397;47.506;19.158;2024-01-11T06:40:24;-2.19;62.98
67572;SHT31;54397;47.506;19.158;2024-01-11T06:43:46;-1.91;60.91
67572;SHT31;54397;47.506;19.158;2024-01-11T06:47:10;-1.89;60.98
67572;SHT31;54397;47.506;19.158;2024-01-11T06:50:32;-1.35;87.98
67572;SHT31;54397;47.506;19.158;2024-01-11T06:53:56;-0.91;90.14
67572;SHT31;54397;47.506;19.158;2024-01-11T06:57:20;-0.67;89.20
67572;SHT31;54397;47.506;19.158;2024-01-11T07:00:42;-0.45;87.08
67572;SHT31;54397;47.506;19.158;2024-01-11T07:04:07;-0.45;77.92
67572;SHT31;54397;47.506;19.158;2024-01-11T07:07:29;-0.34;76.52
67572;SHT31;54397;47.506;19.158;2024-01-11T07:10:51;-0.40;69.48
67572;SHT31;54397;47.506;19.158;2024-01-11T07:14:15;-1.01;62.19
67572;SHT31;54397;47.506;19.158;2024-01-11T07:17:37;-1.15;61.95
67572;SHT31;54397;47.506;19.158;2024-01-11T07:21:02;-0.92;60.49
67572;SHT31;54397;47.506;19.158;2024-01-11T07:24:23;-1.03;60.96
67572;SHT31;54397;47.506;19.158;2024-01-11T07:27:45;-1.08;60.73
67572;SHT31;54397;47.506;19.158;2024-01-11T07:31:13;-1.60;62.71
67572;SHT31;54397;47.506;19.158;2024-01-11T07:34:34;-1.57;62.77
67572;SHT31;54397;47.506;19.158;2024-01-11T07:37:56;-1.39;62.89
67572;SHT31;54397;47.506;19.158;2024-01-11T07:41:18;-1.56;63.51
67572;SHT31;54397;47.506;19.158;2024-01-11T07:44:42;-1.51;64.02
67572;SHT31;54397;47.506;19.158;2024-01-11T07:48:05;-1.09;75.32
67572;SHT31;54397;47.506;19.158;2024-01-11T07:51:27;-0.61;80.96
67572;SHT31;54397;47.506;19.158;2024-01-11T07:54:51;-0.33;79.43
67572;SHT31;54397;47.506;19.158;2024-01-11T07:58:13;0.02;79.22
67572;SHT31;54397;47.506;19.158;2024-01-11T08:01:36;0.39;77.82
67572;SHT31;54397;47.506;19.158;2024-01-11T08:04:58;0.76;77.06
67572;SHT31;54397;47.506;19.158;2024-01-11T08:08:21;1.27;78.12
67572;SHT31;54397;47.506;19.158;2024-01-11T08:11:45;1.73;76.54
67572;SHT31;54397;47.506;19.158;2024-01-11T08:15:12;2.34;74.85
67572;SHT31;54397;47.506;19.158;2024-01-11T08:18:34;2.75;69.67
67572;SHT31;54397;47.506;19.158;2024-01-11T08:21:58;2.42;59.91
67572;SHT31;54397;47.506;19.158;2024-01-11T08:25:20;2.84;59.89
67572;SHT31;54397;47.506;19.158;2024-01-11T08:28:42;2.72;59.34
67572;SHT31;54397;47.506;19.158;2024-01-11T08:32:06;2.86;59.53
67572;SHT31;54397;47.506;19.158;2024-01-11T08:35:44;2.67;58.27
67572;SHT31;54397;47.506;19.158;2024-01-11T08:39:06;3.03;57.01
67572;SHT31;54397;47.506;19.158;2024-01-11T08:42:29;3.11;54.81
67572;SHT31;54397;47.506;19.158;2024-01-11T08:45:51;2.83;55.29
67572;SHT31;54397;47.506;19.158;2024-01-11T08:49:15;3.04;54.06
67572;SHT31;54397;47.506;19.158;2024-01-11T08:52:40;3.30;55.57
67572;SHT31;54397;47.506;19.158;2024-01-11T08:56:04;3.35;52.44
67572;SHT31;54397;47.506;19.158;2024-01-11T08:59:28;3.86;52.93
67572;SHT31;54397;47.506;19.158;2024-01-11T09:02:53;4.42;50.42
67572;SHT31;54397;47.506;19.158;2024-01-11T09:06:20;4.33;49.20
67572;SHT31;54397;47.506;19.158;2024-01-11T09:09:44;5.09;48.83
67572;SHT31;54397;47.506;19.158;2024-01-11T09:13:16;5.35;47.07
67572;SHT31;54397;47.506;19.158;2024-01-11T09:16:40;5.73;47.15
67572;SHT31;54397;47.506;19.158;2024-01-11T09:20:08;5.72;44.93
67572;SHT31;54397;47.506;19.158;2024-01-11T09:23:31;6.20;44.20
67572;SHT31;54397;47.506;19.158;2024-01-11T09:26:52;6.24;42.84
67572;SHT31;54397;47.506;19.158;2024-01-11T09:30:21;6.36;54.41
67572;SHT31;54397;47.506;19.158;2024-01-11T09:33:43;7.16;63.83
67572;SHT31;54397;47.506;19.158;2024-01-11T09:37:07;6.68;45.77
67572;SHT31;54397;47.506;19.158;2024-01-11T09:40:29;6.68;50.50
67572;SHT31;54397;47.506;19.158;2024-01-11T09:43:53;6.58;42.67
67572;SHT31;54397;47.506;19.158;2024-01-11T09:47:16;7.05;40.93
67572;SHT31;54397;47.506;19.158;2024-01-11T09:50:40;7.24;39.99
67572;SHT31;54397;47.506;19.158;2024-01-11T09:54:03;7.48;44.69
67572;SHT31;54397;47.506;19.158;2024-01-11T09:57:29;7.81;39.34
67572;SHT31;54397;47.506;19.158;2024-01-11T10:00:55;7.51;38.73
67572;SHT31;54397;47.506;19.158;2024-01-11T10:04:20;7.89;38.02
67572;SHT31;54397;47.506;19.158;2024-01-11T10:07:45;8.01;36.77
67572;SHT31;54397;47.506;19.158;2024-01-11T10:11:10;8.56;35.94
67572;SHT31;54397;47.506;19.158;2024-01-11T10:14:31;8.70;34.00
67572;SHT31;54397;47.506;19.158;2024-01-11T10:17:53;8.75;34.06
67572;SHT31;54397;47.506;19.158;2024-01-11T10:21:18;9.39;33.34
67572;SHT31;54397;47.506;19.158;2024-01-11T10:24:40;9.84;32.57
67572;SHT31;54397;47.506;19.158;2024-01-11T10:28:02;10.12;31.80
67572;SHT31;54397;47.506;19.158;2024-01-11T10:31:24;10.60;31.40
67572;SHT31;54397;47.506;19.158;2024-01-11T10:34:51;11.01;31.43
67572;SHT31;54397;47.506;19.158;2024-01-11T10:38:14;11.48;30.68
67572;SHT31;54397;47.506;19.158;2024-01-11T10:41:44;11.76;30.16
67572;SHT31;54397;47.506;19.158;2024-01-11T10:45:15;12.07;29.71
67572;SHT31;54397;47.506;19.158;2024-01-11T10:48:38;12.32;30.52
67572;SHT31;54397;47.506;19.158;2024-01-11T10:52:03;12.46;30.37
67572;SHT31;54397;47.506;19.158;2024-01-11T10:55:30;12.30;30.78
67572;SHT31;54397;47.506;19.158;2024-01-11T10:58:54;11.91;30.03
67572;SHT31;54397;47.506;19.158;2024-01-11T11:02:17;12.31;30.63
67572;SHT31;54397;47.506;19.158;2024-01-11T11:05:40;12.55;30.36
67572;SHT31;54397;47.506;19.158;2024-01-11T11:09:04;12.72;30.40
67572;SHT31;54397;47.506;19.158;2024-01-11T11:12:28;12.95;30.17
67572;SHT31;54397;47.506;19.158;2024-01-11T11:15:50;13.02;29.89
67572;SHT31;54397;47.506;19.158;2024-01-11T11:19:14;12.21;30.48
67572;SHT31;54397;47.506;19.158;2024-01-11T11:22:38;12.69;30.28
67572;SHT31;54397;47.506;19.158;2024-01-11T11:26:06;12.88;30.32
67572;SHT31;54397;47.506;19.158;2024-01-11T11:29:31;12.42;29.88
67572;SHT31;54397;47.506;19.158;2024-01-11T11:32:54;11.93;30.58
67572;SHT31;54397;47.506;19.158;2024-01-11T11:36:30;11.83;32.42
67572;SHT31;54397;47.506;19.158;2024-01-11T11:39:55;12.73;31.62
67572;SHT31;54397;47.506;19.158;2024-01-11T11:43:19;12.90;31.05
67572;SHT31;54397;47.506;19.158;2024-01-11T11:46:42;11.87;39.59
67572;SHT31;54397;47.506;19.158;2024-01-11T11:53:47;12.75;39.05
67572;SHT31;54397;47.506;19.158;2024-01-11T11:57:10;12.49;41.39
67572;SHT31;54397;47.506;19.158;2024-01-11T12:00:35;13.36;39.17
67572;SHT31;54397;47.506;19.158;2024-01-11T12:04:02;13.33;38.44
67572;SHT31;54397;47.506;19.158;2024-01-11T12:07:24;13.10;31.48
67572;SHT31;54397;47.506;19.158;2024-01-11T12:10:48;13.17;31.14
67572;SHT31;54397;47.506;19.158;2024-01-11T12:14:10;13.03;31.47
67572;SHT31;54397;47.506;19.158;2024-01-11T12:17:34;12.75;32.23
67572;SHT31;54397;47.506;19.158;2024-01-11T12:20:56;12.59;32.24
67572;SHT31;54397;47.506;19.158;2024-01-11T12:24:20;12.58;32.31
67572;SHT31;54397;47.506;19.158;2024-01-11T12:27:47;11.89;33.31
67572;SHT31;54397;47.506;19.158;2024-01-11T12:31:11;11.03;33.32
67572;SHT31;54397;47.506;19.158;2024-01-11T12:34:34;11.72;34.57
67572;SHT31;54397;47.506;19.158;2024-01-11T12:38:00;11.89;34.32
67572;SHT31;54397;47.506;19.158;2024-01-11T12:41:22;11.97;33.99
67572;SHT31;54397;47.506;19.158;2024-01-11T12:44:49;11.54;33.46
67572;SHT31;54397;47.506;19.158;2024-01-11T12:48:15;11.75;33.97
67572;SHT31;54397;47.506;19.158;2024-01-11T12:51:40;11.48;34.32
67572;SHT31;54397;47.506;19.158;2024-01-11T12:55:02;11.00;34.32
67572;SHT31;54397;47.506;19.158;2024-01-11T12:58:28;11.06;34.41
67572;SHT31;54397;47.506;19.158;2024-01-11T13:01:50;10.18;39.97
67572;SHT31;54397;47.506;19.158;2024-01-11T13:05:12;9.94;46.23
67572;SHT31;54397;47.506;19.158;2024-01-11T13:08:37;9.05;40.54
67572;SHT31;54397;47.506;19.158;2024-01-11T13:12:01;9.35;46.02
67572;SHT31;54397;47.506;19.158;2024-01-11T13:15:24;9.99;45.93
67572;SHT31;54397;47.506;19.158;2024-01-11T13:18:46;9.70;41.69
67572;SHT31;54397;47.506;19.158;2024-01-11T13:22:11;9.22;47.13
67572;SHT31;54397;47.506;19.158;2024-01-11T13:25:33;9.18;37.57
67572;SHT31;54397;47.506;19.158;2024-01-11T13:28:54;8.95;36.54
67572;SHT31;54397;47.506;19.158;2024-01-11T13:32:18;8.60;37.50
67572;SHT31;54397;47.506;19.158;2024-01-11T13:35:43;7.53;36.86
67572;SHT31;54397;47.506;19.158;2024-01-11T13:39:05;7.16;37.88
67572;SHT31;54397;47.506;19.158;2024-01-11T13:42:32;5.68;39.75
67572;SHT31;54397;47.506;19.158;2024-01-11T13:45:54;6.14;39.90
67572;SHT31;54397;47.506;19.158;2024-01-11T13:49:16;6.14;40.51
67572;SHT31;54397;47.506;19.158;2024-01-11T13:52:40;6.71;51.61
67572;SHT31;54397;47.506;19.158;2024-01-11T13:56:05;7.02;49.98
67572;SHT31;54397;47.506;19.158;2024-01-11T13:59:27;7.33;51.18
67572;SHT31;54397;47.506;19.158;2024-01-11T14:02:49;7.63;49.32
67572;SHT31;54397;47.506;19.158;2024-01-11T14:06:11;7.84;50.28
67572;SHT31;54397;47.506;19.158;2024-01-11T14:09:34;8.05;49.32
67572;SHT31;54397;47.506;19.158;2024-01-11T14:12:56;8.06;48.91
67572;SHT31;54397;47.506;19.158;2024-01-11T14:16:17;7.84;37.44
67572;SHT31;54397;47.506;19.158;2024-01-11T14:19:42;7.68;37.06
67572;SHT31;54397;47.506;19.158;2024-01-11T14:23:04;7.10;36.28
67572;SHT31;54397;47.506;19.158;2024-01-11T14:26:25;6.29;37.37
67572;SHT31;54397;47.506;19.158;2024-01-11T14:29:48;6.23;38.26
67572;SHT31;54397;47.506;19.158;2024-01-11T14:33:09;6.13;37.59
67572;SHT31;54397;47.506;19.158;2024-01-11T14:36:31;6.17;43.34
67572;SHT31;54397;47.506;19.158;2024-01-11T14:39:53;6.51;49.75
67572;SHT31;54397;47.506;19.158;2024-01-11T14:43:15;6.71;49.76
67572;SHT31;54397;47.506;19.158;2024-01-11T14:46:39;6.84;43.62
67572;SHT31;54397;47.506;19.158;2024-01-11T14:50:04;6.98;49.43
67572;SHT31;54397;47.506;19.158;2024-01-11T14:53:26;6.99;46.39
67572;SHT31;54397;47.506;19.158;2024-01-11T14:56:50;7.43;49.47
67572;SHT31;54397;47.506;19.158;2024-01-11T15:00:13;7.58;49.05
67572;SHT31;54397;47.506;19.158;2024-01-11T15:03:39;7.57;39.26
67572;SHT31;54397;47.506;19.158;2024-01-11T15:07:01;6.91;39.05
67572;SHT31;54397;47.506;19.158;2024-01-11T15:10:23;6.72;40.40
67572;SHT31;54397;47.506;19.158;2024-01-11T15:13:45;6.48;41.35
67572;SHT31;54397;47.506;19.158;2024-01-11T15:17:07;6.36;42.22
67572;SHT31;54397;47.506;19.158;2024-01-11T15:20:29;6.26;42.40
67572;SHT31;54397;47.506;19.158;2024-01-11T15:23:51;5.93;43.85
67572;SHT31;54397;47.506;19.158;2024-01-11T15:27:20;5.88;43.87
67572;SHT31;54397;47.506;19.158;2024-01-11T15:30:46;5.76;44.39
67572;SHT31;54397;47.506;19.158;2024-01-11T15:34:12;5.62;44.64
67572;SHT31;54397;47.506;19.158;2024-01-11T15:37:37;5.78;57.94
67572;SHT31;54397;47.506;19.158;2024-01-11T15:41:01;6.11;62.53
67572;SHT31;54397;47.506;19.158;2024-01-11T15:44:23;6.52;64.78
67572;SHT31;54397;47.506;19.158;2024-01-11T15:47:50;6.96;63.55
67572;SHT31;54397;47.506;19.158;2024-01-11T15:51:12;7.03;54.91
67572;SHT31;54397;47.506;19.158;2024-01-11T15:54:36;7.00;54.96
67572;SHT31;54397;47.506;19.158;2024-01-11T15:57:58;7.22;53.75
67572;SHT31;54397;47.506;19.158;2024-01-11T16:01:23;7.09;53.78
67572;SHT31;54397;47.506;19.158;2024-01-11T16:04:47;6.92;54.34
67572;SHT31;54397;47.506;19.158;2024-01-11T16:08:09;6.92;54.86
67572;SHT31;54397;47.506;19.158;2024-01-11T16:11:32;6.44;50.62
67572;SHT31;54397;47.506;19.158;2024-01-11T16:14:56;5.62;44.29
67572;SHT31;54397;47.506;19.158;2024-01-11T16:18:19;5.14;44.95
67572;SHT31;54397;47.506;19.158;2024-01-11T16:21:44;5.10;45.40
67572;SHT31;54397;47.506;19.158;2024-01-11T16:25:11;4.97;46.49
67572;SHT31;54397;47.506;19.158;2024-01-11T16:28:32;4.37;47.50
67572;SHT31;54397;47.506;19.158;2024-01-11T16:31:57;4.00;50.34
67572;SHT31;54397;47.506;19.158;2024-01-11T16:35:23;3.76;56.47
67572;SHT31;54397;47.506;19.158;2024-01-11T16:38:45;4.31;64.52
67572;SHT31;54397;47.506;19.158;2024-01-11T16:42:07;3.87;64.93
67572;SHT31;54397;47.506;19.158;2024-01-11T16:45:32;4.40;61.33
67572;SHT31;54397;47.506;19.158;2024-01-11T16:48:58;4.61;64.73
67572;SHT31;54397;47.506;19.158;2024-01-11T16:52:25;4.69;60.88
67572;SHT31;54397;47.506;19.158;2024-01-11T16:55:47;5.23;63.08
67572;SHT31;54397;47.506;19.158;2024-01-11T16:59:09;5.38;62.94
67572;SHT31;54397;47.506;19.158;2024-01-11T17:02:30;5.17;63.14
67572;SHT31;54397;47.506;19.158;2024-01-11T17:05:52;5.22;58.36
67572;SHT31;54397;47.506;19.158;2024-01-11T17:09:14;5.55;62.85
67572;SHT31;54397;47.506;19.158;2024-01-11T17:12:36;5.51;63.01
67572;SHT31;54397;47.506;19.158;2024-01-11T17:15:58;5.20;59.95
67572;SHT31;54397;47.506;19.158;2024-01-11T17:19:20;5.17;58.88
67572;SHT31;54397;47.506;19.158;2024-01-11T17:22:42;4.93;60.88
67572;SHT31;54397;47.506;19.158;2024-01-11T17:26:05;5.06;61.24
67572;SHT31;54397;47.506;19.158;2024-01-11T17:29:27;5.10;64.10
67572;SHT31;54397;47.506;19.158;2024-01-11T17:32:50;4.85;61.37
67572;SHT31;54397;47.506;19.158;2024-01-11T17:36:13;5.09;63.60
67572;SHT31;54397;47.506;19.158;2024-01-11T17:39:34;4.95;62.82
67572;SHT31;54397;47.506;19.158;2024-01-11T17:42:56;5.09;59.41
67572;SHT31;54397;47.506;19.158;2024-01-11T17:46:22;5.06;52.04
67572;SHT31;54397;47.506;19.158;2024-01-11T17:49:49;4.80;52.57
67572;SHT31;54397;47.506;19.158;2024-01-11T17:53:17;4.16;52.74
67572;SHT31;54397;47.506;19.158;2024-01-11T17:56:39;3.52;53.88
67572;SHT31;54397;47.506;19.158;2024-01-11T18:00:08;3.91;53.47
67572;SHT31;54397;47.506;19.158;2024-01-11T18:03:32;3.70;54.40
67572;SHT31;54397;47.506;19.158;2024-01-11T18:06:54;4.01;63.49
67572;SHT31;54397;47.506;19.158;2024-01-11T18:10:16;4.40;66.49
67572;SHT31;54397;47.506;19.158;2024-01-11T18:13:41;4.68;66.14
67572;SHT31;54397;47.506;19.158;2024-01-11T18:17:05;5.10;65.27
67572;SHT31;54397;47.506;19.158;2024-01-11T18:20:28;5.44;62.89
67572;SHT31;54397;47.506;19.158;2024-01-11T18:23:53;5.50;62.08
67572;SHT31;54397;47.506;19.158;2024-01-11T18:27:14;5.38;53.45
67572;SHT31;54397;47.506;19.158;2024-01-11T18:30:38;5.10;50.60
67572;SHT31;54397;47.506;19.158;2024-01-11T18:34:02;4.93;51.02
67572;SHT31;54397;47.506;19.158;2024-01-11T18:37:24;4.62;51.26
67572;SHT31;54397;47.506;19.158;2024-01-11T18:40:48;3.83;52.69
67572;SHT31;54397;47.506;19.158;2024-01-11T18:44:11;3.36;54.48
67572;SHT31;54397;47.506;19.158;2024-01-11T18:47:35;3.42;54.64
67572;SHT31;54397;47.506;19.158;2024-01-11T18:50:57;3.22;54.67
67572;SHT31;54397;47.506;19.158;2024-01-11T18:54:21;2.27;58.05
67572;SHT31;54397;47.506;19.158;2024-01-11T18:57:43;2.72;57.07
67572;SHT31;54397;47.506;19.158;2024-01-11T19:01:06;2.76;56.35
67572;SHT31;54397;47.506;19.158;2024-01-11T19:04:30;3.04;55.82
67572;SHT31;54397;47.506;19.158;2024-01-11T19:07:54;2.96;56.33
67572;SHT31;54397;47.506;19.158;2024-01-11T19:11:16;3.11;56.20
67572;SHT31;54397;47.506;19.158;2024-01-11T19:14:38;2.92;56.28
67572;SHT31;54397;47.506;19.158;2024-01-11T19:18:00;2.71;56.98
67572;SHT31;54397;47.506;19.158;2024-01-11T19:21:25;2.57;57.27
67572;SHT31;54397;47.506;19.158;2024-01-11T19:24:49;2.73;57.23
67572;SHT31;54397;47.506;19.158;2024-01-11T19:28:14;2.80;56.90
67572;SHT31;54397;47.506;19.158;2024-01-11T19:31:38;2.38;58.38
67572;SHT31;54397;47.506;19.158;2024-01-11T19:35:01;2.76;57.34
67572;SHT31;54397;47.506;19.158;2024-01-11T19:38:25;2.72;57.09
67572;SHT31;54397;47.506;19.158;2024-01-11T19:41:47;2.80;56.94
67572;SHT31;54397;47.506;19.158;2024-01-11T19:45:09;2.96;56.39
67572;SHT31;54397;47.506;19.158;2024-01-11T19:48:31;3.03;56.26
67572;SHT31;54397;47.506;19.158;2024-01-11T19:51:53;3.15;65.17
67572;SHT31;54397;47.506;19.158;2024-01-11T19:55:20;3.43;65.16
67572;SHT31;54397;47.506;19.158;2024-01-11T19:58:41;3.76;67.15
67572;SHT31;54397;47.506;19.158;2024-01-11T20:02:03;3.97;60.84
67572;SHT31;54397;47.506;19.158;2024-01-11T20:05:29;4.11;63.14
67572;SHT31;54397;47.506;19.158;2024-01-11T20:08:51;4.42;54.46
67572;SHT31;54397;47.506;19.158;2024-01-11T20:12:15;4.07;53.23
67572;SHT31;54397;47.506;19.158;2024-01-11T20:15:40;4.03;53.90
67572;SHT31;54397;47.506;19.158;2024-01-11T20:19:01;4.01;52.77
67572;SHT31;54397;47.506;19.158;2024-01-11T20:22:23;3.91;53.18
67572;SHT31;54397;47.506;19.158;2024-01-11T20:25:46;3.36;53.84
67572;SHT31;54397;47.506;19.158;2024-01-11T20:29:12;3.35;54.95
67572;SHT31;54397;47.506;19.158;2024-01-11T20:32:34;3.41;54.62
67572;SHT31;54397;47.506;19.158;2024-01-11T20:35:56;3.20;54.69
67572;SHT31;54397;47.506;19.158;2024-01-11T20:39:18;3.25;55.25
67572;SHT31;54397;47.506;19.158;2024-01-11T20:42:42;3.41;55.22
67572;SHT31;54397;47.506;19.158;2024-01-11T20:46:03;3.52;54.82
67572;SHT31;54397;47.506;19.158;2024-01-11T20:49:25;3.48;54.77
67572;SHT31;54397;47.506;19.158;2024-01-11T20:52:51;3.46;54.86
67572;SHT31;54397;47.506;19.158;2024-01-11T20:56:15;3.63;54.40
67572;SHT31;54397;47.506;19.158;2024-01-11T20:59:39;3.66;54.53
67572;SHT31;54397;47.506;19.158;2024-01-11T21:03:02;3.76;53.94
67572;SHT31;54397;47.506;19.158;2024-01-11T21:06:26;3.96;53.75
67572;SHT31;54397;47.506;19.158;2024-01-11T21:09:48;3.68;54.90
67572;SHT31;54397;47.506;19.158;2024-01-11T21:13:10;3.52;55.74
67572;SHT31;54397;47.506;19.158;2024-01-11T21:16:33;3.89;54.33